Un Pendik — TCOD2 — position and weather

sailwx.info

Track history (hours):
 
Tides and Currents Weather Stations Pressure Air Temp Water Temp Dewpoint Dewpoint Depression Visibility Wind Speed Wind Dir Waves Ship Positions

Un Pendik

Last reported at 2016-Aug-30 08:33 UTC. Time now 2016-Aug-30 18:51 UTC.
Position N 36°29' E 024°17'.

Length 193 m; draft 6.2 m.

Type: Ship (hazmat cat A). MMSI: 271000792.

Date/timePositionNaut miles runAvg speedWind from/ knotsBaromVisibWave heightAir tempDewpointWater temp
2016-Aug-30 08:33N 36°29' E 024°17'1919.5
2016-Aug-30 07:33N 36°27' E 023°53'2020.1
2016-Aug-30 06:33N 36°25' E 023°28'26218.5
2016-Aug-29 16:24N 39°19' E 019°20'1720.5
2016-Aug-29 15:33N 39°33' E 019°08'35520.4
2016-Aug-28 22:10N 44°06' E 014°03'1220.2
2016-Aug-28 21:33N 44°17' E 013°54'2120.5
2016-Aug-28 20:34N 44°34' E 013°38'2120.6
2016-Aug-28 19:34N 44°51' E 013°22'2020.1
2016-Aug-28 18:34N 45°08' E 013°07'1818.0
2016-Aug-28 17:34N 45°26' E 013°09'2315.8
2016-Aug-28 16:07N 45°38' E 013°36'6 4.1
2016-Aug-28 14:33N 45°39' E 013°45'0 0.0
2016-Aug-28 13:26N 45°39' E 013°45'0 0.0
2016-Aug-28 12:32N 45°39' E 013°45'0 0.0
2016-Aug-28 11:29N 45°39' E 013°45'0 0.0
2016-Aug-28 09:31N 45°39' E 013°45'0 0.0
2016-Aug-28 08:33N 45°39' E 013°45'0 0.0
2016-Aug-28 07:34N 45°39' E 013°45'0 0.0
2016-Aug-28 06:31N 45°39' E 013°45'8 8.1
2016-Aug-28 05:31N 45°36' E 013°34'1819.0
2016-Aug-28 04:33N 45°24' E 013°15'1918.8
2016-Aug-28 03:33N 45°05' E 013°20'1919.3
2016-Aug-28 02:34N 44°48' E 013°32'1919.1
2016-Aug-28 01:33N 44°32' E 013°46'1919.2
2016-Aug-28 00:33N 44°16' E 014°01'1919.4
2016-Aug-27 23:33N 44°01' E 014°18'2219.1
2016-Aug-27 22:23N 43°45' E 014°40'3919.1
2016-Aug-27 20:20N 43°17' E 015°18'1519.4
2016-Aug-27 19:34N 43°06' E 015°33'1919.3
2016-Aug-27 18:33N 42°52' E 015°51'  
2016-Aug-21 19:32N 45°20' E 013°04'1919.1
2016-Aug-21 18:33N 45°34' E 013°23'16 7.2
2016-Aug-21 16:18N 45°38' E 013°45'0 0.0
2016-Aug-21 15:24N 45°38' E 013°45'0 0.0
2016-Aug-21 14:08N 45°38' E 013°45'0 0.0
2016-Aug-21 13:29N 45°38' E 013°45'0 0.0
2016-Aug-21 12:28N 45°38' E 013°45'0 0.0
2016-Aug-21 10:15N 45°38' E 013°45'0 0.0
2016-Aug-21 09:33N 45°38' E 013°45'0 0.0
2016-Aug-21 08:33N 45°38' E 013°45'0 0.0
2016-Aug-21 07:32N 45°38' E 013°45'29 9.8
2016-Aug-21 04:33N 45°19' E 013°14'1919.4
2016-Aug-21 03:34N 45°00' E 013°22'1919.3
2016-Aug-21 02:33N 44°44' E 013°36'1919.2
2016-Aug-21 01:33N 44°27' E 013°51'7819.5
2016-Aug-20 21:34N 43°29' E 015°02'2019.6
2016-Aug-20 20:33N 43°15' E 015°21'2019.6
2016-Aug-20 19:33N 43°01' E 015°40'2019.6
2016-Aug-20 18:33N 42°47' E 015°59'2019.8
2016-Aug-20 17:32N 42°32' E 016°18'1919.6
2016-Aug-20 16:33N 42°19' E 016°36'  
Track history (hours):
 
Tides and Currents Weather Stations Pressure Air Temp Water Temp Dewpoint Dewpoint Depression Visibility Wind Speed Wind Dir Waves Ship Positions

Un Pendik

Last reported at 2016-Aug-30 08:33 UTC. Time now 2016-Aug-30 18:51 UTC.
Position N 36°29' E 024°17'.

Length 193 m; draft 6.2 m.

Type: Ship (hazmat cat A). MMSI: 271000792.

Date/timePositionNaut miles runAvg speedWind from/ knotsBaromVisibWave heightAir tempDewpointWater temp
2016-Aug-30 08:33N 36°29' E 024°17'1919.5
2016-Aug-30 07:33N 36°27' E 023°53'2020.1
2016-Aug-30 06:33N 36°25' E 023°28'26218.5
2016-Aug-29 16:24N 39°19' E 019°20'1720.5
2016-Aug-29 15:33N 39°33' E 019°08'35520.4
2016-Aug-28 22:10N 44°06' E 014°03'1220.2
2016-Aug-28 21:33N 44°17' E 013°54'2120.5
2016-Aug-28 20:34N 44°34' E 013°38'2120.6
2016-Aug-28 19:34N 44°51' E 013°22'2020.1
2016-Aug-28 18:34N 45°08' E 013°07'1818.0
2016-Aug-28 17:34N 45°26' E 013°09'2315.8
2016-Aug-28 16:07N 45°38' E 013°36'6 4.1
2016-Aug-28 14:33N 45°39' E 013°45'0 0.0
2016-Aug-28 13:26N 45°39' E 013°45'0 0.0
2016-Aug-28 12:32N 45°39' E 013°45'0 0.0
2016-Aug-28 11:29N 45°39' E 013°45'0 0.0
2016-Aug-28 09:31N 45°39' E 013°45'0 0.0
2016-Aug-28 08:33N 45°39' E 013°45'0 0.0
2016-Aug-28 07:34N 45°39' E 013°45'0 0.0
2016-Aug-28 06:31N 45°39' E 013°45'8 8.1
2016-Aug-28 05:31N 45°36' E 013°34'1819.0
2016-Aug-28 04:33N 45°24' E 013°15'1918.8
2016-Aug-28 03:33N 45°05' E 013°20'1919.3
2016-Aug-28 02:34N 44°48' E 013°32'1919.1
2016-Aug-28 01:33N 44°32' E 013°46'1919.2
2016-Aug-28 00:33N 44°16' E 014°01'1919.4
2016-Aug-27 23:33N 44°01' E 014°18'2219.1
2016-Aug-27 22:23N 43°45' E 014°40'3919.1
2016-Aug-27 20:20N 43°17' E 015°18'1519.4
2016-Aug-27 19:34N 43°06' E 015°33'1919.3
2016-Aug-27 18:33N 42°52' E 015°51'  
2016-Aug-21 19:32N 45°20' E 013°04'1919.1
2016-Aug-21 18:33N 45°34' E 013°23'16 7.2
2016-Aug-21 16:18N 45°38' E 013°45'0 0.0
2016-Aug-21 15:24N 45°38' E 013°45'0 0.0
2016-Aug-21 14:08N 45°38' E 013°45'0 0.0
2016-Aug-21 13:29N 45°38' E 013°45'0 0.0
2016-Aug-21 12:28N 45°38' E 013°45'0 0.0
2016-Aug-21 10:15N 45°38' E 013°45'0 0.0
2016-Aug-21 09:33N 45°38' E 013°45'0 0.0
2016-Aug-21 08:33N 45°38' E 013°45'0 0.0
2016-Aug-21 07:32N 45°38' E 013°45'29 9.8
2016-Aug-21 04:33N 45°19' E 013°14'1919.4
2016-Aug-21 03:34N 45°00' E 013°22'1919.3
2016-Aug-21 02:33N 44°44' E 013°36'1919.2
2016-Aug-21 01:33N 44°27' E 013°51'7819.5
2016-Aug-20 21:34N 43°29' E 015°02'2019.6
2016-Aug-20 20:33N 43°15' E 015°21'2019.6
2016-Aug-20 19:33N 43°01' E 015°40'2019.6
2016-Aug-20 18:33N 42°47' E 015°59'2019.8
2016-Aug-20 17:32N 42°32' E 016°18'1919.6
2016-Aug-20 16:33N 42°19' E 016°36'  

Dump ship's entire track history